Time;durP1;ratioP1;P1;durP2;ratioP2;P2;SDS_P1;SDS_P2;PMS_P1;PMS_P2;Temp;Humidity;BMP_temperature;BMP_pressure;BME280_temperature;BME280_humidity;BME280_pressure;Samples;Min_cycle;Max_cycle;Signal;HPM_P1;HPM_P2
2021/12/23 00:01:46;;;;;;;4.37;2.10;;;0.90;93.20;;;;;;5050261;28;20134;-76
2021/12/23 00:04:14;;;;;;;5.87;2.57;;;0.90;93.10;;;;;;5082800;28;20377;-74
2021/12/23 00:06:44;;;;;;;5.43;2.23;;;0.90;93.00;;;;;;5083366;28;20051;-76
2021/12/23 00:09:11;;;;;;;5.50;2.07;;;0.90;93.00;;;;;;5084929;28;20109;-74
2021/12/23 00:11:39;;;;;;;5.43;2.47;;;0.90;93.10;;;;;;5083959;28;20039;-74
2021/12/23 00:14:09;;;;;;;6.43;2.30;;;0.90;93.00;;;;;;5051586;28;20040;-74
2021/12/23 00:16:46;;;;;;;7.37;3.10;;;0.90;93.00;;;;;;5081720;28;20080;-74
2021/12/23 00:24:42;;;;;;;5.27;2.57;;;0.90;93.00;;;;;;5070415;28;20480;-74
2021/12/23 00:27:09;;;;;;;8.87;4.60;;;0.90;93.00;;;;;;5066191;28;20384;-74
2021/12/23 00:29:40;;;;;;;9.17;3.83;;;0.90;93.00;;;;;;5066364;28;20055;-76
2021/12/23 00:32:08;;;;;;;7.63;3.90;;;0.90;92.90;;;;;;5051234;28;20738;-76
2021/12/23 00:34:39;;;;;;;9.03;3.63;;;0.90;93.00;;;;;;5067764;28;20615;-76
2021/12/23 00:37:10;;;;;;;6.67;3.23;;;1.00;93.00;;;;;;5067272;28;20074;-76
2021/12/23 00:39:37;;;;;;;6.57;2.53;;;1.00;93.00;;;;;;5080362;28;20048;-74
2021/12/23 00:42:08;;;;;;;8.80;4.67;;;1.00;93.20;;;;;;5082241;28;20150;-74
2021/12/23 00:44:40;;;;;;;11.63;5.57;;;0.90;92.90;;;;;;5082288;28;20035;-74
2021/12/23 00:47:07;;;;;;;8.20;5.07;;;0.90;92.80;;;;;;5082952;28;20059;-74
2021/12/23 00:49:34;;;;;;;11.30;4.83;;;0.90;92.80;;;;;;5081723;28;20496;-74
2021/12/23 00:52:03;;;;;;;9.20;5.20;;;0.90;92.80;;;;;;5080263;28;21178;-74
2021/12/23 00:54:30;;;;;;;9.83;4.63;;;0.90;92.80;;;;;;5063991;28;20075;-74
2021/12/23 00:56:58;;;;;;;7.93;3.80;;;0.90;92.90;;;;;;5064942;28;20067;-74
2021/12/23 00:59:24;;;;;;;9.77;5.07;;;1.00;92.90;;;;;;5083437;28;20052;-74
2021/12/23 01:01:52;;;;;;;9.43;4.77;;;1.00;92.80;;;;;;5066044;28;20093;-74
2021/12/23 01:04:20;;;;;;;10.07;4.33;;;0.90;92.80;;;;;;5082364;28;20496;-75
2021/12/23 01:06:48;;;;;;;11.43;5.97;;;1.00;92.90;;;;;;5067320;28;20072;-76
2021/12/23 01:09:15;;;;;;;7.93;4.00;;;0.90;92.80;;;;;;5085105;28;20123;-76
2021/12/23 01:11:42;;;;;;;8.23;4.00;;;1.00;92.80;;;;;;5085307;28;20063;-76
2021/12/23 01:19:17;;;;;;;9.07;4.20;;;1.00;92.80;;;;;;5085258;28;20044;-76
2021/12/23 01:21:44;;;;;;;8.27;3.93;;;1.00;92.80;;;;;;5066370;28;20052;-75
2021/12/23 01:24:11;;;;;;;6.90;3.13;;;1.00;92.80;;;;;;5070175;28;20063;-74
2021/12/23 01:26:39;;;;;;;6.97;3.43;;;1.00;92.80;;;;;;5086010;28;20039;-74
2021/12/23 01:29:07;;;;;;;6.90;3.13;;;1.00;92.80;;;;;;5083246;28;20040;-74
2021/12/23 01:31:38;;;;;;;7.10;3.37;;;1.00;92.80;;;;;;5067810;28;20074;-74
2021/12/23 01:34:06;;;;;;;7.37;3.60;;;1.00;92.80;;;;;;5066208;28;20557;-74
2021/12/23 01:36:33;;;;;;;7.40;3.30;;;1.00;92.70;;;;;;5084333;28;20052;-74
2021/12/23 01:39:01;;;;;;;6.80;3.10;;;1.00;92.70;;;;;;5068558;28;20059;-74
2021/12/23 01:41:28;;;;;;;6.97;2.93;;;1.00;92.80;;;;;;5085292;28;20588;-74
2021/12/23 01:43:56;;;;;;;7.60;3.90;;;1.00;92.80;;;;;;5085877;28;20416;-74
2021/12/23 01:46:23;;;;;;;9.67;4.10;;;1.00;92.80;;;;;;5086096;28;20044;-74
2021/12/23 01:48:52;;;;;;;11.33;5.20;;;1.00;92.70;;;;;;5050806;28;20048;-74
2021/12/23 01:51:19;;;;;;;11.13;5.90;;;1.00;92.70;;;;;;5083560;28;20044;-74
2021/12/23 01:53:47;;;;;;;9.23;5.53;;;1.00;92.60;;;;;;5067123;28;20055;-74
2021/12/23 01:56:15;;;;;;;9.87;4.67;;;1.00;92.70;;;;;;5082606;28;20127;-74
2021/12/23 01:58:42;;;;;;;9.17;4.50;;;1.00;92.70;;;;;;5084028;28;20098;-74
2021/12/23 02:01:10;;;;;;;8.73;4.43;;;1.00;92.70;;;;;;5069616;28;20503;-74
2021/12/23 02:03:39;;;;;;;8.23;3.80;;;1.00;92.70;;;;;;5086416;28;20075;-74
2021/12/23 02:06:06;;;;;;;8.50;3.70;;;1.00;92.70;;;;;;5077210;28;20048;-74
2021/12/23 02:08:35;;;;;;;6.20;3.50;;;1.00;92.70;;;;;;5086367;28;20176;-74
2021/12/23 02:11:04;;;;;;;5.43;2.90;;;1.00;92.70;;;;;;5051771;28;20113;-74
2021/12/23 02:13:32;;;;;;;6.07;3.17;;;1.00;92.70;;;;;;5068264;28;20442;-73
2021/12/23 02:16:00;;;;;;;5.80;2.97;;;1.00;92.70;;;;;;5086133;28;20108;-73
2021/12/23 02:18:28;;;;;;;5.53;2.70;;;1.00;92.70;;;;;;5085771;28;20196;-73
2021/12/23 02:20:56;;;;;;;6.63;2.97;;;1.00;92.70;;;;;;5068032;28;20040;-74
2021/12/23 02:23:25;;;;;;;7.57;3.13;;;1.00;92.70;;;;;;5068172;28;20126;-74
2021/12/23 02:25:52;;;;;;;8.40;4.10;;;1.00;92.70;;;;;;5050379;28;20048;-74
2021/12/23 02:28:20;;;;;;;7.47;3.60;;;1.00;92.60;;;;;;5050072;28;20032;-74
2021/12/23 02:30:51;;;;;;;6.57;3.47;;;1.00;92.70;;;;;;5086655;28;20439;-74
2021/12/23 02:33:25;;;;;;;7.60;3.43;;;0.90;92.70;;;;;;5064693;28;20069;-74
2021/12/23 02:35:57;;;;;;;6.87;3.30;;;0.90;92.70;;;;;;5084241;28;20075;-74
2021/12/23 02:38:24;;;;;;;7.32;3.28;;;0.90;92.70;;;;;;5068194;28;20052;-74
2021/12/23 02:40:52;;;;;;;7.70;3.17;;;0.80;92.70;;;;;;5065447;28;20120;-74
2021/12/23 02:43:26;;;;;;;7.37;3.40;;;0.80;92.70;;;;;;5085539;28;20044;-74
2021/12/23 02:45:55;;;;;;;6.55;2.85;;;0.80;92.80;;;;;;5083893;28;20060;-74
2021/12/23 02:48:25;;;;;;;6.83;2.90;;;0.70;92.80;;;;;;5084260;28;20032;-73
2021/12/23 02:50:55;;;;;;;5.43;2.50;;;0.70;92.80;;;;;;5082993;28;20040;-74
2021/12/23 02:53:23;;;;;;;6.80;3.03;;;0.70;92.80;;;;;;5083512;28;20048;-73
2021/12/23 02:55:53;;;;;;;7.10;3.03;;;0.60;92.80;;;;;;5073361;28;20047;-74
2021/12/23 02:58:20;;;;;;;4.97;2.63;;;0.70;92.80;;;;;;5084350;28;20052;-74
2021/12/23 03:00:48;;;;;;;5.80;2.60;;;0.60;92.80;;;;;;5051586;28;20067;-74
2021/12/23 03:03:16;;;;;;;5.37;2.30;;;0.60;92.90;;;;;;5062973;28;20047;-74
2021/12/23 03:05:47;;;;;;;4.57;1.73;;;0.60;92.80;;;;;;5061697;28;20041;-74
2021/12/23 03:08:15;;;;;;;4.75;2.25;;;0.60;92.90;;;;;;5064554;28;20028;-74
2021/12/23 03:10:42;;;;;;;6.63;2.77;;;0.70;92.90;;;;;;5065528;28;20068;-74
2021/12/23 03:13:09;;;;;;;5.67;2.37;;;0.70;92.80;;;;;;5080115;28;20040;-73
2021/12/23 03:15:36;;;;;;;5.83;2.40;;;0.70;92.80;;;;;;5065898;28;20116;-73
2021/12/23 03:18:03;;;;;;;5.17;2.33;;;0.80;92.80;;;;;;5067034;28;20552;-73
2021/12/23 03:20:30;;;;;;;7.40;2.90;;;0.80;92.80;;;;;;5065922;28;20048;-74
2021/12/23 03:22:57;;;;;;;7.60;4.20;;;0.80;92.80;;;;;;5046662;28;20111;-74
2021/12/23 03:25:24;;;;;;;8.47;3.37;;;0.80;92.70;;;;;;5079807;28;20131;-73
2021/12/23 03:27:51;;;;;;;5.70;3.00;;;0.80;92.70;;;;;;5049623;28;20050;-73
2021/12/23 03:30:18;;;;;;;6.63;2.97;;;0.80;92.70;;;;;;5082395;28;20152;-73
2021/12/23 03:32:46;;;;;;;7.07;3.07;;;0.70;92.70;;;;;;5081363;28;20044;-74
2021/12/23 03:35:13;;;;;;;5.50;2.87;;;0.70;92.70;;;;;;5065527;28;20040;-73
2021/12/23 03:37:40;;;;;;;5.57;2.73;;;0.70;92.70;;;;;;5049600;28;20056;-74
2021/12/23 03:40:08;;;;;;;7.73;3.10;;;0.60;92.70;;;;;;5082799;28;20068;-73
2021/12/23 03:42:36;;;;;;;5.63;3.10;;;0.60;92.70;;;;;;5066426;28;20085;-74
2021/12/23 03:45:05;;;;;;;6.50;2.93;;;0.60;92.70;;;;;;5062424;28;20051;-74
2021/12/23 03:47:33;;;;;;;5.87;2.43;;;0.60;92.80;;;;;;5079897;28;20072;-76
2021/12/23 03:50:00;;;;;;;7.33;3.50;;;0.60;92.80;;;;;;5084693;28;20048;-76
2021/12/23 03:52:27;;;;;;;11.10;4.47;;;0.50;92.70;;;;;;5084935;28;20647;-76
2021/12/23 03:54:59;;;;;;;7.37;3.80;;;0.50;92.80;;;;;;5064122;28;20459;-77
2021/12/23 03:57:26;;;;;;;9.50;4.47;;;0.40;92.80;;;;;;5063870;28;20735;-76
2021/12/23 03:59:53;;;;;;;7.37;4.20;;;0.40;92.80;;;;;;5056818;28;20055;-76
2021/12/23 04:02:20;;;;;;;10.57;5.83;;;0.40;92.80;;;;;;5085525;28;20050;-77
2021/12/23 04:04:47;;;;;;;9.53;4.30;;;0.40;92.80;;;;;;5051535;28;20044;-76
2021/12/23 04:07:16;;;;;;;7.77;3.77;;;0.50;92.80;;;;;;5085250;28;20063;-76
2021/12/23 04:09:43;;;;;;;8.13;3.97;;;0.50;92.80;;;;;;5085258;28;20121;-76
2021/12/23 04:12:10;;;;;;;6.90;3.63;;;0.50;92.80;;;;;;5085190;28;20047;-75
2021/12/23 04:14:37;;;;;;;6.03;3.00;;;0.60;92.80;;;;;;5085816;28;20495;-75
2021/12/23 04:17:04;;;;;;;7.37;3.20;;;0.60;92.80;;;;;;5052029;28;20105;-76
2021/12/23 04:19:32;;;;;;;6.77;2.77;;;0.60;92.80;;;;;;5067271;28;20404;-76
2021/12/23 04:22:00;;;;;;;8.23;4.20;;;0.60;92.80;;;;;;5085158;28;20474;-76
2021/12/23 04:24:27;;;;;;;8.77;3.57;;;0.60;92.70;;;;;;5084494;28;20801;-76
2021/12/23 04:26:54;;;;;;;7.47;3.67;;;0.70;92.70;;;;;;5084019;28;20044;-76
2021/12/23 04:29:23;;;;;;;9.37;4.60;;;0.70;92.70;;;;;;5085978;28;20048;-76
2021/12/23 04:31:50;;;;;;;9.53;4.60;;;0.70;92.60;;;;;;5048963;28;20098;-76
2021/12/23 04:34:17;;;;;;;9.57;4.50;;;0.70;92.60;;;;;;5078093;28;20036;-76
2021/12/23 04:36:44;;;;;;;10.93;4.63;;;0.70;92.60;;;;;;5051091;28;20500;-76
2021/12/23 04:39:11;;;;;;;9.70;5.00;;;0.80;92.60;;;;;;5074778;28;20052;-76
2021/12/23 04:41:38;;;;;;;9.43;5.67;;;0.80;92.60;;;;;;5068357;28;20636;-76
2021/12/23 04:44:06;;;;;;;8.33;5.00;;;0.80;92.60;;;;;;5067136;28;20105;-74
2021/12/23 04:46:33;;;;;;;12.67;5.33;;;0.80;92.50;;;;;;5049466;28;20142;-74
2021/12/23 04:49:00;;;;;;;12.90;6.20;;;0.80;92.50;;;;;;5083004;28;20055;-74
2021/12/23 04:51:27;;;;;;;12.57;6.77;;;0.80;92.50;;;;;;5067743;28;20067;-74
2021/12/23 04:53:54;;;;;;;10.47;5.73;;;0.80;92.40;;;;;;5065680;28;20050;-74
2021/12/23 04:56:21;;;;;;;11.93;6.23;;;0.80;92.40;;;;;;5064080;28;20028;-74
2021/12/23 04:58:50;;;;;;;12.27;6.37;;;0.80;92.40;;;;;;5066938;28;20089;-74
2021/12/23 05:01:27;;;;;;;11.63;6.70;;;0.80;92.40;;;;;;5067786;28;20043;-76
2021/12/23 05:03:55;;;;;;;14.40;7.43;;;0.80;92.60;;;;;;5084338;28;20066;-76
2021/12/23 05:06:22;;;;;;;13.03;6.43;;;0.80;92.40;;;;;;5083162;28;20064;-76
2021/12/23 05:08:49;;;;;;;13.00;6.73;;;0.80;92.30;;;;;;5084163;28;20468;-76
2021/12/23 05:11:16;;;;;;;12.97;6.70;;;0.80;92.30;;;;;;5083984;28;20055;-76
2021/12/23 05:13:49;;;;;;;11.30;5.97;;;0.80;92.30;;;;;;5066681;28;20040;-77
2021/12/23 05:16:17;;;;;;;;;;;0.80;92.30;;;;;;5050411;28;20048;-77
2021/12/23 05:18:45;;;;;;;12.70;7.00;;;0.80;92.40;;;;;;5082172;28;19920;-76
2021/12/23 05:21:12;;;;;;;14.93;7.97;;;0.80;92.30;;;;;;5085023;28;20037;-76
2021/12/23 05:23:39;;;;;;;16.77;8.53;;;0.80;92.50;;;;;;5084354;28;20118;-76
2021/12/23 05:26:08;;;;;;;17.30;8.57;;;0.80;92.20;;;;;;5066863;28;20054;-77
2021/12/23 05:28:36;;;;;;;12.70;6.77;;;0.80;92.20;;;;;;5083631;28;20055;-76
2021/12/23 05:31:04;;;;;;;12.40;7.20;;;0.80;92.30;;;;;;5083940;28;20048;-76
2021/12/23 05:33:31;;;;;;;16.20;7.37;;;0.80;92.30;;;;;;5060253;28;20051;-76
2021/12/23 05:35:59;;;;;;;16.43;8.37;;;0.80;92.30;;;;;;5082824;28;20055;-76
2021/12/23 05:38:27;;;;;;;16.47;8.77;;;0.80;92.20;;;;;;5083094;28;20071;-76
2021/12/23 05:40:53;;;;;;;15.57;8.20;;;0.80;92.20;;;;;;5049040;28;20095;-76
2021/12/23 05:43:20;;;;;;;16.23;8.73;;;0.80;92.20;;;;;;5083392;28;20036;-76
2021/12/23 05:45:51;;;;;;;19.73;11.43;;;0.80;92.20;;;;;;5049947;28;20056;-76
2021/12/23 05:48:18;;;;;;;19.77;11.40;;;0.80;92.10;;;;;;5084446;28;20071;-75
2021/12/23 05:50:45;;;;;;;19.23;10.13;;;0.80;92.00;;;;;;5085321;28;20075;-76
2021/12/23 05:53:12;;;;;;;19.17;10.30;;;0.80;92.00;;;;;;5084085;28;20040;-76
2021/12/23 05:55:39;;;;;;;16.47;9.50;;;0.80;92.10;;;;;;5082866;28;20063;-76
2021/12/23 05:58:06;;;;;;;24.00;12.30;;;0.80;92.10;;;;;;5066144;28;20742;-77
2021/12/23 06:00:34;;;;;;;21.00;10.83;;;0.80;92.00;;;;;;5084696;28;21143;-76
2021/12/23 06:03:03;;;;;;;21.40;10.53;;;0.80;92.00;;;;;;5083222;28;20076;-77
2021/12/23 06:05:30;;;;;;;18.73;8.97;;;0.80;92.00;;;;;;5083447;28;20071;-76
2021/12/23 06:07:57;;;;;;;16.97;8.77;;;0.80;92.00;;;;;;5081594;28;20036;-76
2021/12/23 06:10:24;;;;;;;15.70;8.13;;;0.80;92.00;;;;;;5066824;28;20036;-76
2021/12/23 06:12:51;;;;;;;16.40;8.37;;;0.80;92.00;;;;;;5050741;28;20589;-76
2021/12/23 06:15:19;;;;;;;15.90;9.10;;;0.90;92.00;;;;;;5082309;28;20534;-76
2021/12/23 06:17:46;;;;;;;19.63;10.23;;;0.80;92.00;;;;;;5066756;28;20036;-75
2021/12/23 06:20:14;;;;;;;20.07;9.43;;;0.80;91.90;;;;;;5082107;28;20051;-75
2021/12/23 06:22:41;;;;;;;20.53;10.97;;;0.80;92.00;;;;;;5067852;28;20117;-75
2021/12/23 06:25:11;;;;;;;20.17;10.23;;;0.80;92.00;;;;;;5076281;28;20212;-75
2021/12/23 06:27:39;;;;;;;18.83;10.17;;;0.80;91.90;;;;;;5086808;28;20048;-74
2021/12/23 06:30:19;;;;;;;19.03;10.03;;;0.70;91.90;;;;;;5084071;28;20442;-74
2021/12/23 06:32:49;;;;;;;17.20;9.70;;;0.80;92.00;;;;;;5067763;28;20078;-74
2021/12/23 06:35:18;;;;;;;19.30;9.73;;;0.80;92.00;;;;;;5066188;28;20052;-74
2021/12/23 06:37:46;;;;;;;18.00;10.10;;;0.80;91.90;;;;;;5083886;28;20052;-74
2021/12/23 06:40:14;;;;;;;22.20;11.37;;;0.70;91.90;;;;;;5068111;28;20349;-74
2021/12/23 06:42:41;;;;;;;23.93;11.97;;;0.80;92.10;;;;;;5084611;28;20121;-75
2021/12/23 06:45:09;;;;;;;20.17;11.73;;;0.70;91.80;;;;;;5084397;28;20131;-74
2021/12/23 06:47:37;;;;;;;26.03;12.40;;;0.80;91.80;;;;;;5085978;28;20077;-74
2021/12/23 06:50:06;;;;;;;21.90;11.80;;;0.80;91.80;;;;;;5069300;28;20141;-75
2021/12/23 06:52:33;;;;;;;25.73;13.00;;;0.80;91.70;;;;;;5068714;28;20105;-75
2021/12/23 06:55:00;;;;;;;23.10;11.40;;;0.80;91.70;;;;;;5068275;28;20056;-74
2021/12/23 06:57:28;;;;;;;22.13;11.07;;;0.80;91.70;;;;;;5050627;28;20124;-74
2021/12/23 06:59:55;;;;;;;25.27;12.63;;;0.80;91.70;;;;;;5034671;28;20089;-74
2021/12/23 07:02:23;;;;;;;23.83;12.97;;;0.80;91.70;;;;;;5065877;28;20036;-73
2021/12/23 07:04:50;;;;;;;43.73;13.00;;;0.80;91.60;;;;;;5067281;28;20060;-74
2021/12/23 07:07:29;;;;;;;23.93;12.47;;;0.80;91.60;;;;;;5067341;28;20515;-74
2021/12/23 07:09:56;;;;;;;22.80;11.77;;;0.90;91.50;;;;;;5036989;28;20059;-73
2021/12/23 07:12:23;;;;;;;23.33;11.10;;;0.90;91.60;;;;;;5063458;28;20127;-74
2021/12/23 07:14:50;;;;;;;21.23;10.87;;;0.90;91.60;;;;;;5085454;28;20098;-75
2021/12/23 07:17:23;;;;;;;18.90;9.90;;;0.90;91.70;;;;;;5069384;28;20044;-75
2021/12/23 07:19:50;;;;;;;18.33;9.80;;;1.00;91.70;;;;;;5084965;28;20051;-75
2021/12/23 07:22:17;;;;;;;18.37;9.60;;;1.00;91.70;;;;;;5068340;28;20040;-75
2021/12/23 07:24:44;;;;;;;20.60;10.77;;;1.00;91.70;;;;;;5069028;28;20074;-76
2021/12/23 07:27:12;;;;;;;20.63;9.57;;;1.00;91.60;;;;;;5052192;28;20044;-75
2021/12/23 07:29:39;;;;;;;16.53;8.83;;;1.00;91.60;;;;;;5069205;28;20101;-76
2021/12/23 07:32:06;;;;;;;17.13;8.60;;;1.00;91.60;;;;;;5084766;28;20542;-77
2021/12/23 07:34:34;;;;;;;16.10;7.33;;;1.00;91.60;;;;;;5084119;28;20036;-76
2021/12/23 07:37:01;;;;;;;17.47;9.37;;;1.10;91.70;;;;;;5077465;28;20199;-77
2021/12/23 07:39:28;;;;;;;16.23;8.73;;;1.10;91.60;;;;;;5085783;28;20128;-79
2021/12/23 07:42:15;;;;;;;17.97;9.27;;;1.10;91.60;;;;;;5072282;28;20040;-79
2021/12/23 07:44:43;;;;;;;17.47;9.20;;;1.10;91.60;;;;;;5068931;28;20128;-79
2021/12/23 07:47:12;;;;;;;18.27;9.10;;;1.10;91.60;;;;;;5052080;28;20079;-78
2021/12/23 07:49:41;;;;;;;21.10;10.13;;;1.10;91.60;;;;;;5085679;28;20048;-76
2021/12/23 07:52:09;;;;;;;25.47;11.63;;;1.10;91.50;;;;;;5068203;28;20071;-74
2021/12/23 07:54:36;;;;;;;22.30;10.20;;;1.10;91.50;;;;;;5067113;28;20044;-75
2021/12/23 07:57:04;;;;;;;17.67;9.57;;;1.10;91.50;;;;;;5067508;28;20122;-74
2021/12/23 07:59:32;;;;;;;17.87;8.23;;;1.10;91.50;;;;;;5083468;28;20048;-75
2021/12/23 08:02:00;;;;;;;18.10;8.83;;;1.10;91.60;;;;;;5067053;28;20085;-76
2021/12/23 08:04:27;;;;;;;16.30;7.83;;;1.10;91.60;;;;;;5068801;28;20040;-76
2021/12/23 08:06:57;;;;;;;16.93;7.47;;;1.20;91.60;;;;;;5084950;28;20040;-76
2021/12/23 08:09:25;;;;;;;15.17;6.53;;;1.20;91.60;;;;;;5052318;28;20044;-76
2021/12/23 08:11:52;;;;;;;13.43;6.50;;;1.20;91.60;;;;;;5084863;28;20051;-76
2021/12/23 08:14:20;;;;;;;14.17;6.90;;;1.30;91.60;;;;;;5084581;28;20443;-74
2021/12/23 08:16:47;;;;;;;15.57;7.77;;;1.30;91.60;;;;;;5066525;28;20434;-74
2021/12/23 08:19:14;;;;;;;15.47;8.03;;;1.30;91.50;;;;;;5066492;28;20040;-74
2021/12/23 08:21:41;;;;;;;15.90;7.93;;;1.30;91.50;;;;;;5085042;28;20167;-76
2021/12/23 08:24:09;;;;;;;16.67;7.50;;;1.30;91.50;;;;;;5067668;28;20052;-76
2021/12/23 08:26:41;;;;;;;14.73;7.80;;;1.30;91.60;;;;;;5066855;28;21123;-74
2021/12/23 08:29:09;;;;;;;12.83;6.40;;;1.30;91.60;;;;;;5057515;28;20085;-73
2021/12/23 08:31:37;;;;;;;14.97;7.27;;;1.30;91.60;;;;;;5082634;28;20336;-73
2021/12/23 08:34:04;;;;;;;16.90;8.20;;;1.40;91.60;;;;;;5066514;28;20067;-73
2021/12/23 08:36:31;;;;;;;16.73;8.87;;;1.40;91.60;;;;;;5033803;28;20099;-77
2021/12/23 08:38:58;;;;;;;19.00;9.77;;;1.40;91.50;;;;;;5080141;28;20567;-76
2021/12/23 08:41:26;;;;;;;16.27;7.93;;;1.40;91.40;;;;;;5064228;28;20039;-76
2021/12/23 08:43:53;;;;;;;17.03;8.10;;;1.40;91.50;;;;;;5080751;28;20214;-76
2021/12/23 08:46:20;;;;;;;13.87;7.40;;;1.40;91.50;;;;;;5063534;28;20063;-76
2021/12/23 08:48:48;;;;;;;12.87;6.50;;;1.40;91.60;;;;;;5047451;28;20044;-76
2021/12/23 08:51:18;;;;;;;12.33;6.20;;;1.50;91.60;;;;;;5084040;28;20048;-75
2021/12/23 08:53:45;;;;;;;13.47;6.53;;;1.50;91.60;;;;;;5066614;28;20866;-76
2021/12/23 08:56:12;;;;;;;12.17;6.30;;;1.50;91.60;;;;;;5049669;28;20056;-75
2021/12/23 08:58:40;;;;;;;14.17;7.37;;;1.50;91.50;;;;;;5083654;28;20089;-77
2021/12/23 09:01:07;;;;;;;11.27;5.97;;;1.60;91.60;;;;;;5083378;28;20044;-75
2021/12/23 09:03:35;;;;;;;14.77;7.53;;;1.50;91.50;;;;;;5083294;28;20518;-76
2021/12/23 09:06:04;;;;;;;14.53;7.07;;;1.50;91.50;;;;;;5076524;28;20172;-76
2021/12/23 09:08:31;;;;;;;14.33;7.10;;;1.60;91.50;;;;;;5063672;28;20052;-76
2021/12/23 09:10:59;;;;;;;13.03;6.70;;;1.60;91.50;;;;;;5063627;28;20048;-77
2021/12/23 09:13:29;;;;;;;13.93;6.60;;;1.60;91.50;;;;;;5082512;28;20055;-77
2021/12/23 09:15:57;;;;;;;11.53;5.43;;;1.60;91.50;;;;;;5080684;28;20137;-77
2021/12/23 09:18:24;;;;;;;11.63;5.37;;;1.70;91.60;;;;;;5082151;28;20097;-76
2021/12/23 09:20:52;;;;;;;10.80;4.93;;;1.70;91.60;;;;;;5082664;28;20395;-76
2021/12/23 09:23:20;;;;;;;11.80;5.43;;;1.80;91.60;;;;;;5081571;28;20136;-76
2021/12/23 09:25:48;;;;;;;12.07;5.43;;;1.80;91.60;;;;;;5081117;28;20058;-76
2021/12/23 09:34:08;;;;;;;14.10;7.13;;;1.80;91.50;;;;;;5064659;28;20044;-77
2021/12/23 09:36:36;;;;;;;13.10;6.57;;;1.90;91.50;;;;;;5069468;28;20056;-77
2021/12/23 09:39:06;;;;;;;15.70;7.63;;;1.90;91.40;;;;;;5083184;28;20472;-77
2021/12/23 09:41:37;;;;;;;14.77;7.43;;;1.90;91.40;;;;;;5066036;28;20056;-78
2021/12/23 09:44:05;;;;;;;16.87;8.03;;;1.90;91.40;;;;;;5086299;28;20632;-77
2021/12/23 09:46:34;;;;;;;17.77;8.93;;;1.90;91.40;;;;;;5052914;28;20140;-77
2021/12/23 09:49:03;;;;;;;18.53;9.30;;;1.90;91.60;;;;;;5053308;28;20415;-77
2021/12/23 09:51:32;;;;;;;23.27;9.17;;;1.90;91.30;;;;;;5075656;28;20056;-79
2021/12/23 09:54:06;;;;;;;17.23;9.60;;;1.90;91.40;;;;;;5086218;28;20067;-80
2021/12/23 09:56:34;;;;;;;15.67;7.93;;;1.90;91.40;;;;;;5086194;28;20423;-77
2021/12/23 09:59:05;;;;;;;15.53;7.93;;;2.00;91.30;;;;;;5070190;28;20040;-81
2021/12/23 10:01:34;;;;;;;14.87;7.40;;;2.00;91.30;;;;;;5054942;28;20044;-79
2021/12/23 10:04:03;;;;;;;16.60;9.03;;;2.10;91.40;;;;;;5055790;28;20388;-81
2021/12/23 10:06:30;;;;;;;18.33;8.60;;;2.10;91.30;;;;;;5061843;28;20051;-80
2021/12/23 10:09:00;;;;;;;16.70;8.53;;;2.20;91.30;;;;;;5070851;28;20040;-81
2021/12/23 10:11:42;;;;;;;16.77;7.73;;;2.20;91.30;;;;;;5088183;28;20451;-79
2021/12/23 10:31:09;;;;;;;20.27;10.40;;;2.40;91.00;;;;;;5088602;28;20101;-78
2021/12/23 10:38:37;;;;;;;23.33;12.93;;;2.40;90.80;;;;;;5069603;28;20131;-77
2021/12/23 10:41:10;;;;;;;30.67;15.33;;;2.50;91.10;;;;;;5084527;28;20110;-76
2021/12/23 10:43:45;;;;;;;26.75;12.13;;;2.40;90.60;;;;;;5087036;28;20047;-77
2021/12/23 10:46:14;;;;;;;28.23;15.23;;;2.50;90.70;;;;;;5086967;28;20123;-76
2021/12/23 10:49:39;;;;;;;23.63;12.90;;;2.50;90.70;;;;;;5085450;28;21138;-76
2021/12/23 10:52:15;;;;;;;23.97;12.50;;;2.50;90.70;;;;;;5084526;28;20075;-76
2021/12/23 11:00:29;;;;;;;25.43;12.03;;;2.60;90.60;;;;;;5080233;28;20044;-78
2021/12/23 11:03:35;;;;;;;24.07;12.67;;;2.60;90.70;;;;;;5061979;28;20472;-77
2021/12/23 11:06:20;;;;;;;24.53;12.63;;;2.70;90.70;;;;;;5085259;28;20040;-77
2021/12/23 11:11:44;;;;;;;19.80;10.23;;;2.80;90.60;;;;;;5082578;28;20131;-78
2021/12/23 11:28:55;;;;;;;19.30;10.70;;;2.90;90.60;;;;;;5085448;28;20052;-78
2021/12/23 11:40:04;;;;;;;24.17;11.80;;;3.10;90.60;;;;;;5086076;28;20134;-77
2021/12/23 11:42:49;;;;;;;21.73;10.20;;;3.10;90.50;;;;;;5072658;28;20044;-78
2021/12/23 11:45:16;;;;;;;20.73;11.70;;;3.10;90.50;;;;;;5071688;28;20040;-78
2021/12/23 11:47:45;;;;;;;19.70;10.30;;;3.10;90.50;;;;;;5063996;28;20146;-76
2021/12/23 11:50:19;;;;;;;20.53;10.43;;;3.20;90.50;;;;;;5052025;28;20055;-77
2021/12/23 11:52:47;;;;;;;22.67;11.80;;;3.20;90.60;;;;;;5053294;28;20048;-76
2021/12/23 11:55:15;;;;;;;22.83;11.73;;;3.20;90.50;;;;;;5082935;28;20837;-76
2021/12/23 11:57:43;;;;;;;21.35;11.38;;;3.20;90.50;;;;;;5067759;28;20131;-78
2021/12/23 12:00:20;;;;;;;24.97;11.83;;;3.20;90.50;;;;;;5067497;28;20664;-78
2021/12/23 12:03:03;;;;;;;21.93;11.03;;;3.30;90.60;;;;;;5066022;28;20067;-78
2021/12/23 12:05:33;;;;;;;25.02;12.50;;;3.30;90.50;;;;;;5082038;28;20055;-77
2021/12/23 12:08:17;;;;;;;21.93;10.47;;;3.30;90.50;;;;;;5081713;28;20051;-77
2021/12/23 12:10:45;;;;;;;23.57;10.67;;;3.30;90.50;;;;;;5067677;28;20604;-77
2021/12/23 12:13:20;;;;;;;19.48;10.18;;;3.40;90.60;;;;;;5082322;28;20058;-77
2021/12/23 12:15:49;;;;;;;21.00;10.60;;;3.40;90.60;;;;;;5065427;28;20064;-77
2021/12/23 12:18:23;;;;;;;21.02;11.23;;;3.50;90.50;;;;;;5084558;28;20052;-77
2021/12/23 12:20:59;;;;;;;22.90;11.55;;;3.50;90.50;;;;;;5085542;28;20055;-76
2021/12/23 12:23:39;;;;;;;20.07;11.00;;;3.50;90.50;;;;;;5085017;28;20479;-77
2021/12/23 12:26:10;;;;;;;24.25;11.93;;;3.60;90.40;;;;;;5083650;28;20051;-77
2021/12/23 12:28:43;;;;;;;25.95;12.95;;;3.60;90.40;;;;;;5083790;28;20748;-76
2021/12/23 12:31:18;;;;;;;22.33;11.98;;;3.60;90.30;;;;;;5085718;28;20044;-78
2021/12/23 12:34:08;;;;;;;26.08;13.45;;;3.60;90.30;;;;;;5084282;28;20054;-77
2021/12/23 12:36:40;;;;;;;24.60;12.13;;;3.70;90.40;;;;;;5065848;28;20048;-75
2021/12/23 12:39:10;;;;;;;23.13;13.20;;;3.70;90.40;;;;;;5083639;28;20059;-76
2021/12/23 12:41:39;;;;;;;22.60;11.07;;;3.70;90.30;;;;;;5087036;28;20411;-76
2021/12/23 12:46:55;;;;;;;17.83;9.65;;;3.80;90.40;;;;;;5084410;28;20054;-76
2021/12/23 12:49:29;;;;;;;16.87;9.40;;;3.90;90.40;;;;;;5068480;28;20041;-78
2021/12/23 12:52:10;;;;;;;19.50;10.57;;;3.90;90.40;;;;;;5084786;28;20092;-77
2021/12/23 12:54:51;;;;;;;18.55;9.40;;;4.00;90.40;;;;;;5084636;28;20520;-77
2021/12/23 12:57:20;;;;;;;17.73;8.68;;;4.00;90.30;;;;;;5084458;28;20052;-77
2021/12/23 12:59:49;;;;;;;16.90;9.20;;;4.00;90.30;;;;;;5068035;28;20070;-77
2021/12/23 13:02:21;;;;;;;18.13;9.27;;;4.00;90.30;;;;;;5070261;28;20032;-78
2021/12/23 13:04:58;;;;;;;21.23;9.68;;;4.10;90.30;;;;;;5084052;28;20173;-79
2021/12/23 13:07:48;;;;;;;17.20;9.73;;;4.10;90.30;;;;;;5084721;28;20090;-76
2021/12/23 13:10:32;;;;;;;18.63;9.35;;;4.10;90.30;;;;;;5067777;28;20055;-75
2021/12/23 13:13:41;;;;;;;24.00;10.88;;;4.10;90.30;;;;;;5081854;28;20048;-76
2021/12/23 13:16:29;;;;;;;20.33;10.77;;;4.10;90.20;;;;;;5083383;28;20125;-77
2021/12/23 13:19:21;;;;;;;21.50;9.70;;;4.10;90.20;;;;;;5086812;28;20048;-77
2021/12/23 13:21:52;;;;;;;21.67;9.82;;;4.20;90.30;;;;;;5088621;28;20572;-78
2021/12/23 13:24:21;;;;;;;24.33;12.80;;;4.20;90.30;;;;;;5080994;28;20117;-78
2021/12/23 13:26:54;;;;;;;22.40;11.80;;;4.20;90.20;;;;;;5087541;28;20063;-75
2021/12/23 13:30:00;;;;;;;;;;;;;;;;;;;;;
2021/12/23 13:32:37;;;;;;;20.35;11.23;;;4.20;90.20;;;;;;5070046;28;20062;-75
2021/12/23 13:35:13;;;;;;;22.90;11.82;;;4.10;90.20;;;;;;5080967;28;20059;-76
2021/12/23 13:37:45;;;;;;;24.08;13.23;;;4.10;90.20;;;;;;5081815;28;20040;-76
2021/12/23 13:40:40;;;;;;;24.90;12.70;;;4.10;90.30;;;;;;5082408;28;20048;-78
2021/12/23 13:43:07;;;;;;;24.38;12.25;;;4.10;90.30;;;;;;5069259;28;20980;-76
2021/12/23 13:45:34;;;;;;;21.83;11.57;;;4.10;90.30;;;;;;5066526;28;20052;-78
2021/12/23 13:48:06;;;;;;;19.17;10.40;;;4.10;90.30;;;;;;5084082;28;20052;-76
2021/12/23 13:50:33;;;;;;;23.17;11.93;;;4.20;90.40;;;;;;5067661;28;20048;-77
2021/12/23 13:53:00;;;;;;;23.48;11.93;;;4.20;90.30;;;;;;5068501;28;20035;-75
2021/12/23 13:55:27;;;;;;;23.65;12.10;;;4.20;90.30;;;;;;5087700;28;20039;-75
2021/12/23 13:57:56;;;;;;;21.60;10.88;;;4.20;90.30;;;;;;5070434;28;20091;-78
2021/12/23 14:00:32;;;;;;;26.40;12.43;;;4.20;90.40;;;;;;5086424;28;20036;-77
2021/12/23 14:03:18;;;;;;;22.52;10.57;;;4.20;90.40;;;;;;5087049;28;20048;-76
2021/12/23 14:05:52;;;;;;;21.40;11.65;;;4.20;90.30;;;;;;5070838;28;20078;-76
2021/12/23 14:08:19;;;;;;;19.88;10.90;;;4.20;90.40;;;;;;5071956;28;20051;-76
2021/12/23 14:10:47;;;;;;;24.30;12.63;;;4.20;90.40;;;;;;5087953;28;20446;-77
2021/12/23 14:13:17;;;;;;;23.85;11.65;;;4.20;90.40;;;;;;5062455;28;20051;-77
2021/12/23 14:16:10;;;;;;;19.88;10.30;;;4.20;90.50;;;;;;5087740;28;20101;-77